Bristol, Indiana
Current Conditions -  °F | °C
As of 9:53 AM on Monday 22 Dec 2014 (Local Time) from KGSH Reporting Station
Haze Haze  
Wind Chill: 22°   Ceiling: 7500
Heat Index: 30°   Visibility: 4mi
Dew Point: 25°   Wind: 9mph
Humidity: 82%   Direction: 110°ESE
Pressure: 29.97"   Gusts: NA
Location:  41.72°N, 85.82°W
Report Text: KGSH 221453Z AUTO 11008KT 4SM HZ BKN075 OVC095 M01/M04 A2997 RMK AO2 SLP158 T10111039 56015
Loading
Personal Weather Stations






























Interactive Weather Map New forecast layout! Learn more

10-Day Weather Forecast

Advertisements
Track Severe Weather on mobile